Time;durP1;ratioP1;P1;durP2;ratioP2;P2;SDS_P1;SDS_P2;PMS_P1;PMS_P2;Temp;Humidity;BMP_temperature;BMP_pressure;BME280_temperature;BME280_humidity;BME280_pressure;Samples;Min_cycle;Max_cycle;Signal;HPM_P1;HPM_P2
2023/08/28 00:01:31;;;;;;;3.88;1.70;;;;;;;;;;5058169;28;20102;-76
2023/08/28 00:03:56;;;;;;;2.67;1.70;;;;;;;;;;5076510;28;20542;-76
2023/08/28 00:06:22;;;;;;;5.75;1.77;;;;;;;;;;5076415;28;20020;-76
2023/08/28 00:08:47;;;;;;;4.90;1.80;;;;;;;;;;5076299;28;20021;-76
2023/08/28 00:11:12;;;;;;;3.80;1.42;;;;;;;;;;5075724;28;20090;-76
2023/08/28 00:13:37;;;;;;;2.67;1.83;;;;;;;;;;5041671;28;20028;-76
2023/08/28 00:16:03;;;;;;;6.75;2.30;;;;;;;;;;5058250;28;20029;-76
2023/08/28 00:18:28;;;;;;;5.40;2.40;;;;;;;;;;5076071;28;20462;-76
2023/08/28 00:20:55;;;;;;;3.40;2.20;;;;;;;;;;5075932;28;20028;-77
2023/08/28 00:23:20;;;;;;;4.68;2.40;;;;;;;;;;5057798;28;20573;-76
2023/08/28 00:25:45;;;;;;;4.22;2.33;;;;;;;;;;5058100;28;20103;-76
2023/08/28 00:28:11;;;;;;;4.45;2.45;;;;;;;;;;5058236;28;20024;-76
2023/08/28 00:30:36;;;;;;;4.78;2.20;;;;;;;;;;5075355;28;20035;-76
2023/08/28 00:33:01;;;;;;;3.25;2.22;;;;;;;;;;5058124;28;20029;-76
2023/08/28 00:35:26;;;;;;;4.32;2.88;;;;;;;;;;5076065;28;20105;-76
2023/08/28 00:37:52;;;;;;;6.28;2.83;;;;;;;;;;5075764;28;20017;-76
2023/08/28 00:40:17;;;;;;;3.95;2.75;;;;;;;;;;5057203;28;20027;-76
2023/08/28 00:42:42;;;;;;;5.05;3.53;;;;;;;;;;5058076;28;20502;-76
2023/08/28 00:45:08;;;;;;;3.92;2.58;;;;;;;;;;5057926;28;20673;-76
2023/08/28 00:47:34;;;;;;;5.78;2.78;;;;;;;;;;5040849;28;20028;-76
2023/08/28 00:49:59;;;;;;;4.40;2.97;;;;;;;;;;5058318;28;20498;-76
2023/08/28 00:52:25;;;;;;;6.35;3.17;;;;;;;;;;5058784;28;20095;-76
2023/08/28 00:54:51;;;;;;;6.55;3.38;;;;;;;;;;5041569;28;20025;-76
2023/08/28 00:57:16;;;;;;;6.68;3.33;;;;;;;;;;5059413;28;20082;-76
2023/08/28 00:59:43;;;;;;;6.35;4.00;;;;;;;;;;5057554;28;20035;-76
2023/08/28 01:02:11;;;;;;;6.75;3.50;;;;;;;;;;5057142;28;20025;-76
2023/08/28 01:04:36;;;;;;;6.85;4.22;;;;;;;;;;5057402;28;20017;-76
2023/08/28 01:07:15;;;;;;;8.10;3.95;;;;;;;;;;5057296;28;20027;-76
2023/08/28 01:10:05;;;;;;;7.03;3.50;;;;;;;;;;5040779;28;20097;-76
2023/08/28 01:12:49;;;;;;;7.15;3.88;;;;;;;;;;5068429;28;20048;-76
2023/08/28 01:15:17;;;;;;;5.13;3.65;;;;;;;;;;5060644;28;20048;-77
2023/08/28 01:17:44;;;;;;;4.95;3.72;;;;;;;;;;5053307;28;20024;-76
2023/08/28 01:20:13;;;;;;;5.85;3.75;;;;;;;;;;5056233;28;20059;-76
2023/08/28 01:22:58;;;;;;;8.32;4.13;;;;;;;;;;5057531;28;20467;-78
2023/08/28 01:25:25;;;;;;;8.60;4.57;;;;;;;;;;5040881;28;20032;-78
2023/08/28 01:27:51;;;;;;;8.98;5.55;;;;;;;;;;5057225;28;20394;-78
2023/08/28 01:30:16;;;;;;;7.53;4.90;;;;;;;;;;5056396;28;20027;-76
2023/08/28 01:32:43;;;;;;;7.78;4.47;;;;;;;;;;5074763;28;20021;-78
2023/08/28 01:35:13;;;;;;;8.27;4.97;;;;;;;;;;5057401;28;20101;-78
2023/08/28 01:37:57;;;;;;;7.60;4.65;;;;;;;;;;5057118;28;20016;-78
2023/08/28 01:40:27;;;;;;;5.97;4.22;;;;;;;;;;5058194;28;20082;-78
2023/08/28 01:42:53;;;;;;;8.93;5.18;;;;;;;;;;5057773;28;20024;-78
2023/08/28 01:45:19;;;;;;;8.43;4.70;;;;;;;;;;5057631;28;20107;-78
2023/08/28 01:47:45;;;;;;;8.02;4.90;;;;;;;;;;5057592;28;20016;-78
2023/08/28 01:50:10;;;;;;;6.07;3.72;;;;;;;;;;5058487;28;20082;-78
2023/08/28 01:52:35;;;;;;;6.57;3.65;;;;;;;;;;5075550;28;20020;-78
2023/08/28 01:55:01;;;;;;;6.53;4.28;;;;;;;;;;5058070;28;20505;-78
2023/08/28 01:57:26;;;;;;;8.27;5.20;;;;;;;;;;5058614;28;20028;-78
2023/08/28 01:59:51;;;;;;;6.18;4.07;;;;;;;;;;5075177;28;20029;-78
2023/08/28 02:02:16;;;;;;;7.13;4.78;;;;;;;;;;5075741;28;20032;-78
2023/08/28 02:04:42;;;;;;;6.07;4.28;;;;;;;;;;5075563;28;20474;-78
2023/08/28 02:07:10;;;;;;;6.85;4.93;;;;;;;;;;5075207;28;20024;-78
2023/08/28 02:09:36;;;;;;;5.85;3.72;;;;;;;;;;5057304;28;20029;-78
2023/08/28 02:12:01;;;;;;;6.65;4.18;;;;;;;;;;5057095;28;20024;-78
2023/08/28 02:14:26;;;;;;;7.35;4.20;;;;;;;;;;5041144;28;20021;-78
2023/08/28 02:16:51;;;;;;;6.18;4.18;;;;;;;;;;5075440;28;20088;-78
2023/08/28 02:19:17;;;;;;;4.90;3.53;;;;;;;;;;5075929;28;20024;-78
2023/08/28 02:21:47;;;;;;;5.13;3.88;;;;;;;;;;5075789;28;20422;-78
2023/08/28 02:24:12;;;;;;;7.15;4.53;;;;;;;;;;5042098;28;20063;-78
2023/08/28 02:26:38;;;;;;;8.50;4.28;;;;;;;;;;5057506;28;20040;-78
2023/08/28 02:29:03;;;;;;;6.53;4.38;;;;;;;;;;5075680;28;20422;-78
2023/08/28 02:31:28;;;;;;;7.38;5.35;;;;;;;;;;5040722;28;20050;-78
2023/08/28 02:33:54;;;;;;;6.75;4.20;;;;;;;;;;5058210;28;20035;-78
2023/08/28 02:36:19;;;;;;;6.72;5.18;;;;;;;;;;5075546;28;20390;-78
2023/08/28 02:38:44;;;;;;;7.03;4.35;;;;;;;;;;5057399;28;20107;-78
2023/08/28 02:41:10;;;;;;;9.23;5.03;;;;;;;;;;5040531;28;20094;-78
2023/08/28 02:43:36;;;;;;;10.82;5.55;;;;;;;;;;5040847;28;20020;-78
2023/08/28 02:46:02;;;;;;;7.22;5.05;;;;;;;;;;5057415;28;20056;-78
2023/08/28 02:48:27;;;;;;;9.32;5.22;;;;;;;;;;5057381;28;20020;-78
2023/08/28 02:50:53;;;;;;;11.18;5.57;;;;;;;;;;5055009;28;20100;-78
2023/08/28 02:53:18;;;;;;;7.35;4.07;;;;;;;;;;5057612;28;20051;-78
2023/08/28 02:56:25;;;;;;;7.32;4.53;;;;;;;;;;5056988;28;20020;-78
2023/08/28 02:58:51;;;;;;;13.95;4.53;;;;;;;;;;5074921;28;20020;-78
2023/08/28 03:01:17;;;;;;;10.23;4.45;;;;;;;;;;5057219;28;20051;-78
2023/08/28 03:03:43;;;;;;;6.15;3.13;;;;;;;;;;5075567;28;20028;-77
2023/08/28 03:06:08;;;;;;;6.80;3.47;;;;;;;;;;5056826;28;20024;-78
2023/08/28 03:08:33;;;;;;;8.75;3.92;;;;;;;;;;5075339;28;20029;-78
2023/08/28 03:10:59;;;;;;;7.97;3.67;;;;;;;;;;5040571;28;20024;-78
2023/08/28 03:13:24;;;;;;;5.65;4.68;;;;;;;;;;5057386;28;20382;-78
2023/08/28 03:15:49;;;;;;;6.53;3.58;;;;;;;;;;5056903;28;20024;-78
2023/08/28 03:18:15;;;;;;;9.20;4.38;;;;;;;;;;5056285;28;20029;-78
2023/08/28 03:20:41;;;;;;;6.30;3.72;;;;;;;;;;5059289;28;20028;-78
2023/08/28 03:23:09;;;;;;;6.05;3.85;;;;;;;;;;5059931;28;20102;-78
2023/08/28 03:25:34;;;;;;;4.63;2.83;;;;;;;;;;5060203;28;20125;-78
2023/08/28 03:28:01;;;;;;;6.20;3.72;;;;;;;;;;5060837;28;20048;-79
2023/08/28 03:30:27;;;;;;;8.57;3.67;;;;;;;;;;5078738;28;20020;-79
2023/08/28 03:32:52;;;;;;;6.25;3.45;;;;;;;;;;5079537;28;20040;-78
2023/08/28 03:35:17;;;;;;;3.75;2.42;;;;;;;;;;5080300;28;20108;-78
2023/08/28 03:37:44;;;;;;;4.10;2.67;;;;;;;;;;5060966;28;20020;-78
2023/08/28 03:40:10;;;;;;;5.00;2.97;;;;;;;;;;5077527;28;20035;-78
2023/08/28 03:42:35;;;;;;;3.92;2.88;;;;;;;;;;5060591;28;20024;-78
2023/08/28 03:45:00;;;;;;;3.50;2.60;;;;;;;;;;5043740;28;20032;-78
2023/08/28 03:47:25;;;;;;;3.20;2.17;;;;;;;;;;5060580;28;20027;-78
2023/08/28 03:49:51;;;;;;;2.88;1.90;;;;;;;;;;5078384;28;20062;-78
2023/08/28 03:52:16;;;;;;;2.85;1.98;;;;;;;;;;5042681;28;20050;-78
2023/08/28 03:54:41;;;;;;;4.03;2.22;;;;;;;;;;5060125;28;20028;-78
2023/08/28 03:57:06;;;;;;;2.05;1.80;;;;;;;;;;5060296;28;20024;-78
2023/08/28 03:59:32;;;;;;;3.47;2.42;;;;;;;;;;5077974;28;20074;-78
2023/08/28 04:01:57;;;;;;;2.55;1.75;;;;;;;;;;5077513;28;20085;-78
2023/08/28 04:04:22;;;;;;;3.22;2.15;;;;;;;;;;5060353;28;20039;-79
2023/08/28 04:06:48;;;;;;;4.68;2.47;;;;;;;;;;5061114;28;20493;-78
2023/08/28 04:09:14;;;;;;;3.25;2.17;;;;;;;;;;5060386;28;20027;-78
2023/08/28 04:11:40;;;;;;;3.15;1.95;;;;;;;;;;5060752;28;20025;-79
2023/08/28 04:14:05;;;;;;;4.43;2.20;;;;;;;;;;5060903;28;20031;-78
2023/08/28 04:16:30;;;;;;;4.47;2.75;;;;;;;;;;5059530;28;20020;-78
2023/08/28 04:18:56;;;;;;;3.33;2.13;;;;;;;;;;5059868;28;20028;-78
2023/08/28 04:21:21;;;;;;;2.75;1.73;;;;;;;;;;5060017;28;20024;-78
2023/08/28 04:23:46;;;;;;;2.95;1.90;;;;;;;;;;5059752;28;20479;-78
2023/08/28 04:26:12;;;;;;;2.65;1.90;;;;;;;;;;5060173;28;20024;-78
2023/08/28 04:28:37;;;;;;;2.10;1.55;;;;;;;;;;5059832;28;20022;-78
2023/08/28 04:31:03;;;;;;;2.53;1.58;;;;;;;;;;5076611;28;20028;-78
2023/08/28 04:33:29;;;;;;;2.33;1.63;;;;;;;;;;5060189;28;20032;-78
2023/08/28 04:35:54;;;;;;;2.90;1.60;;;;;;;;;;5077883;28;20076;-79
2023/08/28 04:38:19;;;;;;;5.35;2.10;;;;;;;;;;5077597;28;20021;-78
2023/08/28 04:40:45;;;;;;;4.10;2.13;;;;;;;;;;5059078;28;20024;-78
2023/08/28 04:43:10;;;;;;;2.85;2.13;;;;;;;;;;5055773;28;20078;-78
2023/08/28 04:45:35;;;;;;;3.72;2.35;;;;;;;;;;5076567;28;20032;-78
2023/08/28 04:48:01;;;;;;;3.97;2.50;;;;;;;;;;5075185;28;20025;-78
2023/08/28 04:50:28;;;;;;;4.28;2.20;;;;;;;;;;5052337;28;20052;-78
2023/08/28 04:52:53;;;;;;;5.80;2.25;;;;;;;;;;5040037;28;20040;-78
2023/08/28 04:55:19;;;;;;;4.05;2.53;;;;;;;;;;5056498;28;20391;-78
2023/08/28 04:57:44;;;;;;;4.43;2.50;;;;;;;;;;5058117;28;20029;-79
2023/08/28 05:00:10;;;;;;;4.90;2.30;;;;;;;;;;5039266;28;20032;-78
2023/08/28 05:02:35;;;;;;;6.68;2.38;;;;;;;;;;5057615;28;20032;-78
2023/08/28 05:05:00;;;;;;;2.97;2.05;;;;;;;;;;5058780;28;20016;-78
2023/08/28 05:07:28;;;;;;;3.72;1.85;;;;;;;;;;5059286;28;20027;-78
2023/08/28 05:09:53;;;;;;;2.53;1.70;;;;;;;;;;5076666;28;20039;-78
2023/08/28 05:12:18;;;;;;;5.88;2.35;;;;;;;;;;5077104;28;20021;-78
2023/08/28 05:14:44;;;;;;;4.30;2.40;;;;;;;;;;5043515;28;20028;-78
2023/08/28 05:17:09;;;;;;;4.63;2.17;;;;;;;;;;5053770;28;20031;-78
2023/08/28 05:19:35;;;;;;;3.80;1.73;;;;;;;;;;5055529;28;20032;-78
2023/08/28 05:22:00;;;;;;;8.23;2.25;;;;;;;;;;5055329;28;20024;-78
2023/08/28 05:24:25;;;;;;;6.63;2.75;;;;;;;;;;5055484;28;20059;-78
2023/08/28 05:26:51;;;;;;;7.72;2.80;;;;;;;;;;5055477;28;20386;-78
2023/08/28 05:29:16;;;;;;;3.58;2.53;;;;;;;;;;5043310;28;20028;-79
2023/08/28 05:31:41;;;;;;;6.10;2.92;;;;;;;;;;5075122;28;20561;-78
2023/08/28 05:34:06;;;;;;;8.90;2.70;;;;;;;;;;5075675;28;20024;-78
2023/08/28 05:36:32;;;;;;;8.20;1.92;;;;;;;;;;5058150;28;20078;-78
2023/08/28 05:38:57;;;;;;;4.07;3.00;;;;;;;;;;5075228;28;20398;-76
2023/08/28 05:41:23;;;;;;;9.15;2.33;;;;;;;;;;5056181;28;20115;-76
2023/08/28 05:43:48;;;;;;;8.90;2.45;;;;;;;;;;5057001;28;20037;-77
2023/08/28 05:46:13;;;;;;;7.15;3.00;;;;;;;;;;5057432;28;20035;-78
2023/08/28 05:48:38;;;;;;;5.30;2.38;;;;;;;;;;5067604;28;20494;-78
2023/08/28 05:51:04;;;;;;;6.35;2.47;;;;;;;;;;5037198;28;20040;-78
2023/08/28 05:53:29;;;;;;;12.18;2.75;;;;;;;;;;5052772;28;20025;-78
2023/08/28 05:55:54;;;;;;;5.70;2.45;;;;;;;;;;5036290;28;20029;-78
2023/08/28 05:58:20;;;;;;;4.85;2.50;;;;;;;;;;5036572;28;20024;-75
2023/08/28 06:00:46;;;;;;;4.13;2.10;;;;;;;;;;5054056;28;20021;-76
2023/08/28 06:03:11;;;;;;;7.30;2.60;;;;;;;;;;5042435;28;20485;-77
2023/08/28 06:05:38;;;;;;;5.93;2.72;;;;;;;;;;5074187;28;20035;-78
2023/08/28 06:08:03;;;;;;;6.50;2.47;;;;;;;;;;5056858;28;20082;-75
2023/08/28 06:10:29;;;;;;;10.75;2.60;;;;;;;;;;5056004;28;20024;-77
2023/08/28 06:12:54;;;;;;;6.60;4.18;;;;;;;;;;5074807;28;20020;-77
2023/08/28 06:15:19;;;;;;;13.32;2.90;;;;;;;;;;5075662;28;20025;-77
2023/08/28 06:17:45;;;;;;;5.38;2.10;;;;;;;;;;5057170;28;20120;-77
2023/08/28 06:20:11;;;;;;;8.13;2.45;;;;;;;;;;5074227;28;20520;-77
2023/08/28 06:22:37;;;;;;;4.68;2.42;;;;;;;;;;5074676;28;20028;-77
2023/08/28 06:25:03;;;;;;;8.18;2.50;;;;;;;;;;5057529;28;20048;-78
2023/08/28 06:27:28;;;;;;;6.97;2.90;;;;;;;;;;5056896;28;20399;-78
2023/08/28 06:29:53;;;;;;;6.28;2.33;;;;;;;;;;5039960;28;20036;-77
2023/08/28 06:32:19;;;;;;;6.95;2.20;;;;;;;;;;5056714;28;20028;-76
2023/08/28 06:34:44;;;;;;;8.68;2.95;;;;;;;;;;5055946;28;20028;-76
2023/08/28 06:37:09;;;;;;;5.35;2.92;;;;;;;;;;5039993;28;20398;-78
2023/08/28 06:39:35;;;;;;;4.57;2.00;;;;;;;;;;5075455;28;20021;-77
2023/08/28 06:42:00;;;;;;;7.30;1.90;;;;;;;;;;5074668;28;20020;-77
2023/08/28 06:44:25;;;;;;;6.45;1.90;;;;;;;;;;5057356;28;20032;-77
2023/08/28 06:46:50;;;;;;;5.60;2.20;;;;;;;;;;5075696;28;20557;-78
2023/08/28 06:49:16;;;;;;;3.47;2.20;;;;;;;;;;5075852;28;20020;-78
2023/08/28 06:51:41;;;;;;;4.25;2.00;;;;;;;;;;5056512;28;20501;-78
2023/08/28 06:54:06;;;;;;;5.47;2.17;;;;;;;;;;5077797;28;20020;-77
2023/08/28 06:56:32;;;;;;;6.57;1.92;;;;;;;;;;5073831;28;20056;-77
2023/08/28 06:58:57;;;;;;;4.05;2.28;;;;;;;;;;5043323;28;20045;-77
2023/08/28 07:01:22;;;;;;;4.32;2.20;;;;;;;;;;5062416;28;20029;-77
2023/08/28 07:03:48;;;;;;;5.53;2.17;;;;;;;;;;5075083;28;20031;-77
2023/08/28 07:06:16;;;;;;;10.05;2.70;;;;;;;;;;5043116;28;20039;-77
2023/08/28 07:08:41;;;;;;;4.00;2.35;;;;;;;;;;5077636;28;20100;-76
2023/08/28 07:11:07;;;;;;;5.60;2.25;;;;;;;;;;5059218;28;20446;-77
2023/08/28 07:13:33;;;;;;;5.90;2.97;;;;;;;;;;5060721;28;20023;-77
2023/08/28 07:16:00;;;;;;;4.22;2.10;;;;;;;;;;5078516;28;20024;-77
2023/08/28 07:18:25;;;;;;;7.28;2.97;;;;;;;;;;5059574;28;20111;-77
2023/08/28 07:20:50;;;;;;;4.78;2.30;;;;;;;;;;5039755;28;20459;-77
2023/08/28 07:23:16;;;;;;;8.80;2.33;;;;;;;;;;5039385;28;20025;-77
2023/08/28 07:25:41;;;;;;;3.72;1.75;;;;;;;;;;5055583;28;20101;-77
2023/08/28 07:28:07;;;;;;;5.00;2.28;;;;;;;;;;5043402;28;20504;-77
2023/08/28 07:30:32;;;;;;;7.25;2.10;;;;;;;;;;5042912;28;20019;-77
2023/08/28 07:32:58;;;;;;;9.07;2.15;;;;;;;;;;5042736;28;20020;-77
2023/08/28 07:35:23;;;;;;;5.80;1.90;;;;;;;;;;5075711;28;20025;-77
2023/08/28 07:37:49;;;;;;;6.40;1.95;;;;;;;;;;5039671;28;20377;-77
2023/08/28 07:40:14;;;;;;;4.68;2.20;;;;;;;;;;5038468;28;20032;-77
2023/08/28 07:42:40;;;;;;;5.93;2.15;;;;;;;;;;5054852;28;20482;-77
2023/08/28 07:45:06;;;;;;;6.68;2.53;;;;;;;;;;5021429;28;20029;-77
2023/08/28 07:47:31;;;;;;;5.90;2.17;;;;;;;;;;5056108;28;20103;-76
2023/08/28 07:49:56;;;;;;;4.72;2.58;;;;;;;;;;5056535;28;20029;-76
2023/08/28 07:52:21;;;;;;;4.50;2.65;;;;;;;;;;5055982;28;20025;-77
2023/08/28 07:54:47;;;;;;;3.05;1.75;;;;;;;;;;5068066;28;20478;-75
2023/08/28 07:57:12;;;;;;;5.28;2.22;;;;;;;;;;5058449;28;20074;-74
2023/08/28 07:59:37;;;;;;;4.75;2.20;;;;;;;;;;5058004;28;20017;-75
2023/08/28 08:02:04;;;;;;;3.85;2.67;;;;;;;;;;5041502;28;20119;-74
2023/08/28 08:04:31;;;;;;;2.28;1.88;;;;;;;;;;5056958;28;20020;-74
2023/08/28 08:06:56;;;;;;;4.13;1.70;;;;;;;;;;5038078;28;20035;-74
2023/08/28 08:09:22;;;;;;;4.70;1.55;;;;;;;;;;5037853;28;20103;-75
2023/08/28 08:11:48;;;;;;;5.22;1.98;;;;;;;;;;5050673;28;20081;-74
2023/08/28 08:14:13;;;;;;;5.28;1.88;;;;;;;;;;5041673;28;20024;-74
2023/08/28 08:16:38;;;;;;;4.07;1.80;;;;;;;;;;5075706;28;20032;-74
2023/08/28 08:19:04;;;;;;;6.05;2.28;;;;;;;;;;5057337;28;20021;-75
2023/08/28 08:21:29;;;;;;;4.72;1.60;;;;;;;;;;5057666;28;20167;-75
2023/08/28 08:23:55;;;;;;;2.88;1.73;;;;;;;;;;5075290;28;20103;-75
2023/08/28 08:26:20;;;;;;;3.00;1.98;;;;;;;;;;5075743;28;20402;-75
2023/08/28 08:28:49;;;;;;;4.63;1.70;;;;;;;;;;5075340;28;20031;-75
2023/08/28 08:31:14;;;;;;;2.67;1.73;;;;;;;;;;5075607;28;20021;-74
2023/08/28 08:33:39;;;;;;;3.10;1.85;;;;;;;;;;5058084;28;20505;-75
2023/08/28 08:36:05;;;;;;;2.75;1.70;;;;;;;;;;5057555;28;20443;-75
2023/08/28 08:38:30;;;;;;;4.07;1.60;;;;;;;;;;5057759;28;20055;-75
2023/08/28 08:40:58;;;;;;;2.90;1.60;;;;;;;;;;5057383;28;20048;-75
2023/08/28 08:43:25;;;;;;;4.88;1.60;;;;;;;;;;5075215;28;20024;-75
2023/08/28 08:45:55;;;;;;;3.05;1.30;;;;;;;;;;5040729;28;20028;-74
2023/08/28 08:48:24;;;;;;;3.83;1.83;;;;;;;;;;5057907;28;20012;-74
2023/08/28 08:50:49;;;;;;;3.58;2.00;;;;;;;;;;5075393;28;20493;-74
2023/08/28 08:53:35;;;;;;;2.55;1.50;;;;;;;;;;5075026;28;20016;-74
2023/08/28 08:56:03;;;;;;;3.05;1.52;;;;;;;;;;5057421;28;20509;-74
2023/08/28 08:58:30;;;;;;;2.70;1.30;;;;;;;;;;5057446;28;20557;-74
2023/08/28 09:00:55;;;;;;;4.00;1.80;;;;;;;;;;5051361;28;20380;-74
2023/08/28 09:03:21;;;;;;;1.40;1.15;;;;;;;;;;5054974;28;20071;-74
2023/08/28 09:05:47;;;;;;;2.97;1.60;;;;;;;;;;5050448;28;20025;-74
2023/08/28 09:08:12;;;;;;;2.00;1.50;;;;;;;;;;5056965;28;20033;-74
2023/08/28 09:10:38;;;;;;;2.05;1.40;;;;;;;;;;5056487;28;20012;-74
2023/08/28 09:13:04;;;;;;;2.60;1.70;;;;;;;;;;5075169;28;20417;-74
2023/08/28 09:15:29;;;;;;;2.78;1.92;;;;;;;;;;5057082;28;20448;-74
2023/08/28 09:17:54;;;;;;;2.60;1.58;;;;;;;;;;5074678;28;20024;-74
2023/08/28 09:20:21;;;;;;;2.30;1.73;;;;;;;;;;5036988;28;20379;-74
2023/08/28 09:22:51;;;;;;;2.78;1.30;;;;;;;;;;5036474;28;20036;-75
2023/08/28 09:25:17;;;;;;;2.92;1.23;;;;;;;;;;5036324;28;20036;-74
2023/08/28 09:27:43;;;;;;;2.67;1.60;;;;;;;;;;5054814;28;20096;-74
2023/08/28 09:30:10;;;;;;;2.92;1.40;;;;;;;;;;5053912;28;20055;-74
2023/08/28 09:32:44;;;;;;;2.67;1.50;;;;;;;;;;5036764;28;20017;-75
2023/08/28 09:35:10;;;;;;;4.45;1.63;;;;;;;;;;5055030;28;20029;-74
2023/08/28 09:37:35;;;;;;;3.40;2.00;;;;;;;;;;5054832;28;20095;-74
2023/08/28 09:40:01;;;;;;;2.22;1.35;;;;;;;;;;5054935;28;20035;-74
2023/08/28 09:42:26;;;;;;;2.40;1.40;;;;;;;;;;5057675;28;20035;-74
2023/08/28 09:44:51;;;;;;;2.90;1.45;;;;;;;;;;5057717;28;20020;-74
2023/08/28 09:47:21;;;;;;;5.03;1.70;;;;;;;;;;5057025;28;20040;-74
2023/08/28 09:49:46;;;;;;;4.20;1.65;;;;;;;;;;5056534;28;20055;-74
2023/08/28 09:52:12;;;;;;;2.65;1.50;;;;;;;;;;5074334;28;20032;-74
2023/08/28 09:54:37;;;;;;;3.92;1.73;;;;;;;;;;5056193;28;20024;-75
2023/08/28 09:57:14;;;;;;;4.90;1.52;;;;;;;;;;5055612;28;20028;-75
2023/08/28 09:59:39;;;;;;;3.50;1.60;;;;;;;;;;5056088;28;20020;-75
2023/08/28 10:02:05;;;;;;;2.92;1.80;;;;;;;;;;5073703;28;20512;-75
2023/08/28 10:04:33;;;;;;;3.55;1.63;;;;;;;;;;5073401;28;20056;-75
2023/08/28 10:06:58;;;;;;;3.40;1.40;;;;;;;;;;5072685;28;20029;-75
2023/08/28 10:09:25;;;;;;;5.25;1.90;;;;;;;;;;5055765;28;20401;-75
2023/08/28 10:11:52;;;;;;;1.92;1.10;;;;;;;;;;5056028;28;20150;-75
2023/08/28 10:14:20;;;;;;;1.77;1.38;;;;;;;;;;5056041;28;20051;-75
2023/08/28 10:17:05;;;;;;;3.33;1.75;;;;;;;;;;5072796;28;20052;-75
2023/08/28 10:19:38;;;;;;;4.72;1.90;;;;;;;;;;5035374;28;20033;-74
2023/08/28 10:22:06;;;;;;;3.10;1.55;;;;;;;;;;5053808;28;20082;-75
2023/08/28 10:24:33;;;;;;;2.60;1.35;;;;;;;;;;5035760;28;20025;-75
2023/08/28 10:27:00;;;;;;;2.70;1.50;;;;;;;;;;5036252;28;20032;-75
2023/08/28 10:29:26;;;;;;;5.28;1.60;;;;;;;;;;5052800;28;20438;-75
2023/08/28 10:31:53;;;;;;;3.63;1.48;;;;;;;;;;5034357;28;20043;-75
2023/08/28 10:34:18;;;;;;;3.38;1.65;;;;;;;;;;5055772;28;20025;-75
2023/08/28 10:36:46;;;;;;;1.90;1.40;;;;;;;;;;5055843;28;20024;-75
2023/08/28 10:39:11;;;;;;;4.75;1.77;;;;;;;;;;5056205;28;20028;-77
2023/08/28 10:41:37;;;;;;;2.53;1.60;;;;;;;;;;5054657;28;20471;-75
2023/08/28 10:44:06;;;;;;;1.98;1.50;;;;;;;;;;5039475;28;20047;-75
2023/08/28 10:46:31;;;;;;;2.00;1.25;;;;;;;;;;5055782;28;20039;-75
2023/08/28 10:48:58;;;;;;;2.45;1.70;;;;;;;;;;5039008;28;20486;-75
2023/08/28 10:51:36;;;;;;;3.05;1.40;;;;;;;;;;5055620;28;20021;-75
2023/08/28 10:54:10;;;;;;;2.60;1.55;;;;;;;;;;5072946;28;20045;-75
2023/08/28 10:56:37;;;;;;;2.85;1.48;;;;;;;;;;5055654;28;20063;-75
2023/08/28 10:59:23;;;;;;;2.63;1.75;;;;;;;;;;5055501;28;20033;-75
2023/08/28 11:01:56;;;;;;;4.10;1.92;;;;;;;;;;5073206;28;20401;-75
2023/08/28 11:04:22;;;;;;;2.90;1.60;;;;;;;;;;5055775;28;20397;-75
2023/08/28 11:06:48;;;;;;;4.43;1.80;;;;;;;;;;5055647;28;20115;-75
2023/08/28 11:09:28;;;;;;;3.42;2.45;;;;;;;;;;5055988;28;20052;-75
2023/08/28 11:11:57;;;;;;;3.20;1.65;;;;;;;;;;5073439;28;20036;-75
2023/08/28 11:14:22;;;;;;;3.80;1.60;;;;;;;;;;5073384;28;20127;-75
2023/08/28 11:16:47;;;;;;;5.55;1.65;;;;;;;;;;5038794;28;20051;-75
2023/08/28 11:19:13;;;;;;;3.03;1.60;;;;;;;;;;5038446;28;20589;-75
2023/08/28 11:21:44;;;;;;;2.65;1.75;;;;;;;;;;5055462;28;20017;-75
2023/08/28 11:24:25;;;;;;;5.05;1.88;;;;;;;;;;5039213;28;20021;-75
2023/08/28 11:26:50;;;;;;;4.50;2.38;;;;;;;;;;5039197;28;20020;-75
2023/08/28 11:29:26;;;;;;;3.67;1.92;;;;;;;;;;5038970;28;20025;-75
2023/08/28 11:31:52;;;;;;;6.53;1.52;;;;;;;;;;5072342;23;20123;-74
2023/08/28 11:34:17;;;;;;;4.30;1.73;;;;;;;;;;5072374;28;20052;-74
2023/08/28 11:36:45;;;;;;;3.05;1.63;;;;;;;;;;5072334;28;20028;-74
2023/08/28 11:39:23;;;;;;;3.72;1.50;;;;;;;;;;5071123;28;20124;-74
2023/08/28 11:41:53;;;;;;;3.65;1.55;;;;;;;;;;5074556;28;20024;-74
2023/08/28 11:44:19;;;;;;;3.72;1.30;;;;;;;;;;5057364;28;20067;-73
2023/08/28 11:46:44;;;;;;;1.48;1.38;;;;;;;;;;5076146;28;20555;-73
2023/08/28 11:49:12;;;;;;;4.78;1.50;;;;;;;;;;5075754;28;20024;-72
2023/08/28 11:51:37;;;;;;;4.18;1.42;;;;;;;;;;5075503;28;20039;-71
2023/08/28 11:54:03;;;;;;;3.85;1.55;;;;;;;;;;5075386;28;20470;-71
2023/08/28 11:56:33;;;;;;;1.52;1.02;;;;;;;;;;5075384;28;20020;-71
2023/08/28 11:59:01;;;;;;;4.97;2.58;;;;;;;;;;5074702;28;20373;-71
2023/08/28 12:01:27;;;;;;;4.45;1.38;;;;;;;;;;5073974;28;20031;-72
2023/08/28 12:04:04;;;;;;;2.67;1.23;;;;;;;;;;5074076;28;20024;-72
2023/08/28 12:06:35;;;;;;;;;;;;;;;;;;5075130;28;20039;-71
2023/08/28 12:09:00;;;;;;;2.72;1.70;;;;;;;;;;5073512;28;20289;-72
2023/08/28 12:11:26;;;;;;;3.28;1.00;;;;;;;;;;5075253;28;20012;-72
2023/08/28 12:13:54;;;;;;;1.92;1.20;;;;;;;;;;5057389;28;20100;-71
2023/08/28 12:16:19;;;;;;;2.50;1.40;;;;;;;;;;5073796;28;20108;-71
2023/08/28 12:18:52;;;;;;;1.80;1.10;;;;;;;;;;5073184;28;20158;-71
2023/08/28 12:21:19;;;;;;;4.25;1.42;;;;;;;;;;5073459;28;20032;-71
2023/08/28 12:23:56;;;;;;;4.45;1.50;;;;;;;;;;5075061;28;20443;-72
2023/08/28 12:26:21;;;;;;;;;;;;;;;;;;5074382;28;20090;-71
2023/08/28 12:28:49;;;;;;;2.38;1.25;;;;;;;;;;5061917;28;19916;-71
2023/08/28 12:31:26;;;;;;;2.83;1.40;;;;;;;;;;5068063;28;20175;-72
2023/08/28 12:33:52;;;;;;;3.28;1.50;;;;;;;;;;5068652;28;20112;-72
2023/08/28 12:36:18;;;;;;;2.00;1.10;;;;;;;;;;5061989;28;20163;-71
2023/08/28 12:38:48;;;;;;;2.75;1.02;;;;;;;;;;5069298;28;20060;-72
2023/08/28 12:41:14;;;;;;;3.10;1.38;;;;;;;;;;5065510;28;20021;-72
2023/08/28 12:43:40;;;;;;;4.30;1.23;;;;;;;;;;5073223;28;20028;-71
2023/08/28 12:46:05;;;;;;;2.63;1.17;;;;;;;;;;5073190;28;20078;-71
2023/08/28 12:48:30;;;;;;;3.78;1.33;;;;;;;;;;5073788;28;20145;-72
2023/08/28 12:50:56;;;;;;;2.33;1.20;;;;;;;;;;5074048;28;20051;-71
2023/08/28 12:53:24;;;;;;;2.50;1.20;;;;;;;;;;5074317;28;20063;-71
2023/08/28 12:55:49;;;;;;;3.35;1.20;;;;;;;;;;5073555;28;20126;-71
2023/08/28 12:58:15;;;;;;;1.35;1.10;;;;;;;;;;5074254;28;20024;-72
2023/08/28 13:00:40;;;;;;;3.00;1.30;;;;;;;;;;5073030;28;20221;-71
2023/08/28 13:03:06;;;;;;;1.83;1.13;;;;;;;;;;5074147;28;20020;-71
2023/08/28 13:05:31;;;;;;;2.00;1.30;;;;;;;;;;5073109;28;20043;-71
2023/08/28 13:07:57;;;;;;;2.53;1.48;;;;;;;;;;5072299;28;20532;-72
2023/08/28 13:10:22;;;;;;;3.22;1.30;;;;;;;;;;5073957;28;20496;-71
2023/08/28 13:12:48;;;;;;;5.70;1.40;;;;;;;;;;5072663;28;20569;-71
2023/08/28 13:15:13;;;;;;;4.25;1.45;;;;;;;;;;5073938;28;20040;-71
2023/08/28 13:17:38;;;;;;;3.80;1.90;;;;;;;;;;5073476;28;20097;-71
2023/08/28 13:20:04;;;;;;;4.78;1.45;;;;;;;;;;5074247;28;20055;-71
2023/08/28 13:22:30;;;;;;;5.55;1.65;;;;;;;;;;5073039;28;20490;-71
2023/08/28 13:24:55;;;;;;;3.33;1.20;;;;;;;;;;5073677;28;20036;-71
2023/08/28 13:27:23;;;;;;;3.47;1.33;;;;;;;;;;5073561;28;20052;-72
2023/08/28 13:29:48;;;;;;;4.68;1.30;;;;;;;;;;5073538;28;20051;-71
2023/08/28 13:32:13;;;;;;;3.17;1.38;;;;;;;;;;5071644;28;20263;-72
2023/08/28 13:34:39;;;;;;;4.35;1.75;;;;;;;;;;5074203;28;20099;-71
2023/08/28 13:37:05;;;;;;;2.75;1.45;;;;;;;;;;5072195;28;20540;-71
2023/08/28 13:39:31;;;;;;;3.90;1.38;;;;;;;;;;5073639;28;20073;-71
2023/08/28 13:41:56;;;;;;;1.55;1.10;;;;;;;;;;5071975;28;20032;-71
2023/08/28 13:44:21;;;;;;;3.30;1.20;;;;;;;;;;5055371;28;20074;-71
2023/08/28 13:46:47;;;;;;;3.13;1.70;;;;;;;;;;5072663;28;20024;-71
2023/08/28 13:49:12;;;;;;;2.63;1.20;;;;;;;;;;5073442;28;20482;-71
2023/08/28 13:51:37;;;;;;;2.92;1.30;;;;;;;;;;5073067;28;20095;-71
2023/08/28 13:54:03;;;;;;;2.20;1.35;;;;;;;;;;5073092;28;20425;-71
2023/08/28 13:56:28;;;;;;;6.50;1.45;;;;;;;;;;5071374;28;20032;-71
2023/08/28 13:58:53;;;;;;;3.00;1.83;;;;;;;;;;5071853;28;20020;-73
2023/08/28 14:01:18;;;;;;;3.45;1.20;;;;;;;;;;5073114;28;20024;-73
2023/08/28 14:03:44;;;;;;;3.38;1.33;;;;;;;;;;5053655;28;20504;-73
2023/08/28 14:06:09;;;;;;;3.35;1.45;;;;;;;;;;5072044;28;20031;-72
2023/08/28 14:08:34;;;;;;;5.55;1.40;;;;;;;;;;5072791;28;20119;-72
2023/08/28 14:11:06;;;;;;;3.80;1.27;;;;;;;;;;5072511;28;20131;-72
2023/08/28 14:13:33;;;;;;;3.65;2.13;;;;;;;;;;5071968;28;20070;-72
2023/08/28 14:15:58;;;;;;;5.18;1.50;;;;;;;;;;5071093;28;20027;-72
2023/08/28 14:18:24;;;;;;;3.53;1.15;;;;;;;;;;5072785;28;20111;-72
2023/08/28 14:20:50;;;;;;;4.30;1.50;;;;;;;;;;5071299;28;20032;-72
2023/08/28 14:23:17;;;;;;;2.70;1.10;;;;;;;;;;5072566;28;20506;-72
2023/08/28 14:25:42;;;;;;;3.25;1.38;;;;;;;;;;5054805;28;20107;-72
2023/08/28 14:28:07;;;;;;;4.90;1.98;;;;;;;;;;5071740;28;20371;-72
2023/08/28 14:30:33;;;;;;;2.83;1.23;;;;;;;;;;5070906;28;20028;-72
2023/08/28 14:32:58;;;;;;;4.30;1.60;;;;;;;;;;5071192;28;20064;-72
2023/08/28 14:35:23;;;;;;;2.88;1.58;;;;;;;;;;5073158;28;20107;-72
2023/08/28 14:37:49;;;;;;;4.75;1.50;;;;;;;;;;5072643;28;20024;-72
2023/08/28 14:40:15;;;;;;;2.00;1.33;;;;;;;;;;5072627;28;20021;-74